Etusivu
METAR-TAF:

METAR-TAF

Lentoasemat :

Sindal, Tanska

Leveyspiiri: 57-30N, Pituuspiiri: 010-13E, korkeus merenpinnasta: 28 m

Tämänhetkinen sää

Tämä raportti tehtiin 5 tuntia ja 31 minuuttia sitten, kello 12.50 UTC
Tuuli 15 kn idästä/koillisesta
Lämpötila 5°C
Kosteus 75%
Ilmanpaine 1035 hPa
Näkyvyys 10 km tai enemmän
Hajanaisia pilviä 2600 ft:n korkeudessa

METAR: EKSN 191250Z 07015KT 9999 SCT026 05/01 Q1035

Aika: 19:21 (18:21 UTC)

Sääennuste

Tämä raportti tehtiin 9 tuntia ja 24 minuuttia sitten, kello 08.57 UTC
Ennuste voimassa 19. päivästä klo 09 UTC - 19. päivään klo 15 UTC
Tuuli 12 kn idästä/koillisesta
Näkyvyys 10 km tai enemmän
Hajanaisia pilviä 3000 ft:n korkeudessa

TAF: EKSN 190857Z 1909/1915 07012KT 9999 SCT030

Säähavainnot ja -ennusteet yli 4000 lentoasemalta (METAR- ja TAF-raportit).

Käytössä olevat sääasemat on merkitty karttaan keltaisilla ja punaisilla pisteillä.

Aseta hiiri pisteen päälle nähdäksesi sääaseman nimen.

Klikkaa sitten nähdäksesi säähavainnot ja -ennusteet.

Kartan vaihtaminen: klikkaa mustalla rastilla varustettuja vihreitä pisteitä, niin voit zoomata sisään; viivalla varustettua vihreää pistettä, niin voit zoomata ulos tai vihreitä nuolia, niin pääset viereisille kartoille.


METAR-TAF: